sensor_id;sensor_type;location;lat;lon;timestamp;P1;P2;P0
56360;PMS7003;42611;51.132;13.588;2023-02-22T00:04:02;10.9;9.6;
56360;PMS7003;42611;51.132;13.588;2023-02-22T00:09:01;9.8;8.4;
56360;PMS7003;42611;51.132;13.588;2023-02-22T00:14:01;10.0;8.5;
56360;PMS7003;42611;51.132;13.588;2023-02-22T00:19:01;10.1;8.8;
56360;PMS7003;42611;51.132;13.588;2023-02-22T00:24:03;10.4;9.3;
56360;PMS7003;42611;51.132;13.588;2023-02-22T00:29:01;9.9;9.3;
56360;PMS7003;42611;51.132;13.588;2023-02-22T00:34:01;10.3;9.7;
56360;PMS7003;42611;51.132;13.588;2023-02-22T00:39:02;10.6;9.3;
56360;PMS7003;42611;51.132;13.588;2023-02-22T00:44:02;10.8;9.5;
56360;PMS7003;42611;51.132;13.588;2023-02-22T00:49:02;10.6;9.1;
56360;PMS7003;42611;51.132;13.588;2023-02-22T00:55:03;11.3;10.0;
56360;PMS7003;42611;51.132;13.588;2023-02-22T01:00:07;11.4;10.0;
56360;PMS7003;42611;51.132;13.588;2023-02-22T01:05:07;10.4;9.8;
56360;PMS7003;42611;51.132;13.588;2023-02-22T01:10:02;9.7;9.2;
56360;PMS7003;42611;51.132;13.588;2023-02-22T01:15:03;9.4;9.0;
56360;PMS7003;42611;51.132;13.588;2023-02-22T01:20:02;9.9;9.2;
56360;PMS7003;42611;51.132;13.588;2023-02-22T01:30:04;10.5;9.8;
56360;PMS7003;42611;51.132;13.588;2023-02-22T01:35:07;11.6;10.3;
56360;PMS7003;42611;51.132;13.588;2023-02-22T01:40:07;11.7;10.4;
56360;PMS7003;42611;51.132;13.588;2023-02-22T01:50:06;12.8;11.4;
56360;PMS7003;42611;51.132;13.588;2023-02-22T01:55:01;13.6;11.6;
56360;PMS7003;42611;51.132;13.588;2023-02-22T02:00:10;14.3;12.3;
56360;PMS7003;42611;51.132;13.588;2023-02-22T02:05:01;15.4;12.8;
56360;PMS7003;42611;51.132;13.588;2023-02-22T02:10:04;15.5;12.9;
56360;PMS7003;42611;51.132;13.588;2023-02-22T02:15:27;14.2;12.2;
56360;PMS7003;42611;51.132;13.588;2023-02-22T02:20:06;13.7;12.2;
56360;PMS7003;42611;51.132;13.588;2023-02-22T02:25:09;12.5;11.4;
56360;PMS7003;42611;51.132;13.588;2023-02-22T02:30:31;12.4;11.8;
56360;PMS7003;42611;51.132;13.588;2023-02-22T02:35:05;12.0;11.6;
56360;PMS7003;42611;51.132;13.588;2023-02-22T02:40:10;11.9;11.2;
56360;PMS7003;42611;51.132;13.588;2023-02-22T02:45:11;11.7;11.0;
56360;PMS7003;42611;51.132;13.588;2023-02-22T02:50:04;11.6;10.6;
56360;PMS7003;42611;51.132;13.588;2023-02-22T02:55:07;11.3;10.4;
56360;PMS7003;42611;51.132;13.588;2023-02-22T03:00:08;11.5;10.4;
56360;PMS7003;42611;51.132;13.588;2023-02-22T03:10:20;12.3;10.9;
56360;PMS7003;42611;51.132;13.588;2023-02-22T03:20:08;14.3;13.4;
56360;PMS7003;42611;51.132;13.588;2023-02-22T03:25:11;15.7;14.4;
56360;PMS7003;42611;51.132;13.588;2023-02-22T03:30:08;16.2;15.1;
56360;PMS7003;42611;51.132;13.588;2023-02-22T03:35:04;15.7;15.0;
56360;PMS7003;42611;51.132;13.588;2023-02-22T03:40:03;15.1;14.4;
56360;PMS7003;42611;51.132;13.588;2023-02-22T03:45:03;14.6;13.7;
56360;PMS7003;42611;51.132;13.588;2023-02-22T03:50:04;13.8;13.2;
56360;PMS7003;42611;51.132;13.588;2023-02-22T03:55:02;13.7;12.8;
56360;PMS7003;42611;51.132;13.588;2023-02-22T04:00:08;14.4;13.4;
56360;PMS7003;42611;51.132;13.588;2023-02-22T04:05:02;14.6;13.6;
56360;PMS7003;42611;51.132;13.588;2023-02-22T04:10:02;15.3;14.0;
56360;PMS7003;42611;51.132;13.588;2023-02-22T04:15:10;14.6;13.7;
56360;PMS7003;42611;51.132;13.588;2023-02-22T04:20:02;14.7;14.0;
56360;PMS7003;42611;51.132;13.588;2023-02-22T04:25:02;14.6;13.5;
56360;PMS7003;42611;51.132;13.588;2023-02-22T04:30:15;14.4;13.2;
56360;PMS7003;42611;51.132;13.588;2023-02-22T04:35:01;13.0;12.2;
56360;PMS7003;42611;51.132;13.588;2023-02-22T04:41:01;14.0;12.7;
56360;PMS7003;42611;51.132;13.588;2023-02-22T04:46:01;13.6;12.3;
56360;PMS7003;42611;51.132;13.588;2023-02-22T04:51:03;13.2;12.2;
56360;PMS7003;42611;51.132;13.588;2023-02-22T04:56:01;13.0;11.9;
56360;PMS7003;42611;51.132;13.588;2023-02-22T05:01:07;14.3;12.8;
56360;PMS7003;42611;51.132;13.588;2023-02-22T05:06:02;14.6;13.4;
56360;PMS7003;42611;51.132;13.588;2023-02-22T05:11:01;16.1;14.8;
56360;PMS7003;42611;51.132;13.588;2023-02-22T05:16:01;15.9;14.7;
56360;PMS7003;42611;51.132;13.588;2023-02-22T05:21:06;16.7;15.7;
56360;PMS7003;42611;51.132;13.588;2023-02-22T05:26:01;16.4;15.7;
56360;PMS7003;42611;51.132;13.588;2023-02-22T05:31:02;17.2;15.8;
56360;PMS7003;42611;51.132;13.588;2023-02-22T05:41:01;18.7;16.8;
56360;PMS7003;42611;51.132;13.588;2023-02-22T05:46:01;18.8;16.9;
56360;PMS7003;42611;51.132;13.588;2023-02-22T05:51:01;18.4;16.4;
56360;PMS7003;42611;51.132;13.588;2023-02-22T05:56:06;17.6;16.3;
56360;PMS7003;42611;51.132;13.588;2023-02-22T06:06:01;16.5;14.7;
56360;PMS7003;42611;51.132;13.588;2023-02-22T06:11:01;15.6;13.8;
56360;PMS7003;42611;51.132;13.588;2023-02-22T06:16:01;16.8;14.5;
56360;PMS7003;42611;51.132;13.588;2023-02-22T06:26:06;18.3;16.1;
56360;PMS7003;42611;51.132;13.588;2023-02-22T06:31:01;20.0;17.2;
56360;PMS7003;42611;51.132;13.588;2023-02-22T06:36:06;22.3;18.6;
56360;PMS7003;42611;51.132;13.588;2023-02-22T06:41:01;23.0;19.2;
56360;PMS7003;42611;51.132;13.588;2023-02-22T06:46:01;23.8;19.6;
56360;PMS7003;42611;51.132;13.588;2023-02-22T06:51:01;22.3;18.8;
56360;PMS7003;42611;51.132;13.588;2023-02-22T06:56:01;20.9;18.4;
56360;PMS7003;42611;51.132;13.588;2023-02-22T07:01:01;21.5;18.7;
56360;PMS7003;42611;51.132;13.588;2023-02-22T07:06:01;22.3;19.2;
56360;PMS7003;42611;51.132;13.588;2023-02-22T07:11:02;25.5;21.6;
56360;PMS7003;42611;51.132;13.588;2023-02-22T07:16:01;28.1;23.5;
56360;PMS7003;42611;51.132;13.588;2023-02-22T07:21:01;29.8;24.9;
56360;PMS7003;42611;51.132;13.588;2023-02-22T07:26:02;29.9;26.0;
56360;PMS7003;42611;51.132;13.588;2023-02-22T07:31:01;28.7;26.0;
56360;PMS7003;42611;51.132;13.588;2023-02-22T07:36:01;25.9;24.0;
56360;PMS7003;42611;51.132;13.588;2023-02-22T07:41:02;26.3;24.6;
56360;PMS7003;42611;51.132;13.588;2023-02-22T07:46:02;28.3;25.8;
56360;PMS7003;42611;51.132;13.588;2023-02-22T07:55:06;34.2;28.6;
56360;PMS7003;42611;51.132;13.588;2023-02-22T08:00:02;31.9;28.7;
56360;PMS7003;42611;51.132;13.588;2023-02-22T08:05:01;31.5;27.9;
56360;PMS7003;42611;51.132;13.588;2023-02-22T08:10:06;31.4;27.5;
56360;PMS7003;42611;51.132;13.588;2023-02-22T08:15:12;29.8;26.2;
56360;PMS7003;42611;51.132;13.588;2023-02-22T08:20:00;29.4;26.4;
56360;PMS7003;42611;51.132;13.588;2023-02-22T08:25:01;30.2;26.6;
56360;PMS7003;42611;51.132;13.588;2023-02-22T08:30:03;30.2;26.8;
56360;PMS7003;42611;51.132;13.588;2023-02-22T08:35:07;29.6;27.2;
56360;PMS7003;42611;51.132;13.588;2023-02-22T08:40:02;30.6;28.2;
56360;PMS7003;42611;51.132;13.588;2023-02-22T08:45:01;30.5;27.5;
56360;PMS7003;42611;51.132;13.588;2023-02-22T08:50:01;31.3;28.2;
56360;PMS7003;42611;51.132;13.588;2023-02-22T08:55:01;32.3;28.1;
56360;PMS7003;42611;51.132;13.588;2023-02-22T09:00:03;32.9;27.9;
56360;PMS7003;42611;51.132;13.588;2023-02-22T09:05:01;32.4;27.5;
56360;PMS7003;42611;51.132;13.588;2023-02-22T09:10:06;31.4;27.3;
56360;PMS7003;42611;51.132;13.588;2023-02-22T09:15:01;30.7;26.5;
56360;PMS7003;42611;51.132;13.588;2023-02-22T09:20:01;29.0;26.6;
56360;PMS7003;42611;51.132;13.588;2023-02-22T09:25:18;29.8;26.4;
56360;PMS7003;42611;51.132;13.588;2023-02-22T09:30:01;31.1;27.3;
56360;PMS7003;42611;51.132;13.588;2023-02-22T09:35:06;30.8;26.9;
56360;PMS7003;42611;51.132;13.588;2023-02-22T09:40:02;28.5;24.2;
56360;PMS7003;42611;51.132;13.588;2023-02-22T09:45:13;28.4;23.5;
56360;PMS7003;42611;51.132;13.588;2023-02-22T09:50:08;26.2;23.0;
56360;PMS7003;42611;51.132;13.588;2023-02-22T09:55:27;24.9;22.1;
56360;PMS7003;42611;51.132;13.588;2023-02-22T10:00:28;24.7;21.8;
56360;PMS7003;42611;51.132;13.588;2023-02-22T10:05:09;24.8;23.0;
56360;PMS7003;42611;51.132;13.588;2023-02-22T10:15:28;24.2;21.4;
56360;PMS7003;42611;51.132;13.588;2023-02-22T10:20:10;23.6;21.2;
56360;PMS7003;42611;51.132;13.588;2023-02-22T10:25:09;22.7;20.6;
56360;PMS7003;42611;51.132;13.588;2023-02-22T10:30:37;23.6;21.2;
56360;PMS7003;42611;51.132;13.588;2023-02-22T10:35:01;22.4;20.5;
56360;PMS7003;42611;51.132;13.588;2023-02-22T10:40:11;22.9;21.1;
56360;PMS7003;42611;51.132;13.588;2023-02-22T10:45:24;22.4;20.1;
56360;PMS7003;42611;51.132;13.588;2023-02-22T10:55:15;21.1;19.3;
56360;PMS7003;42611;51.132;13.588;2023-02-22T11:00:18;21.1;18.9;
56360;PMS7003;42611;51.132;13.588;2023-02-22T11:05:43;19.4;17.4;
56360;PMS7003;42611;51.132;13.588;2023-02-22T11:10:02;19.3;17.9;
56360;PMS7003;42611;51.132;13.588;2023-02-22T11:15:25;18.3;16.9;
56360;PMS7003;42611;51.132;13.588;2023-02-22T11:20:01;18.6;16.6;
56360;PMS7003;42611;51.132;13.588;2023-02-22T11:25:06;18.0;16.9;
56360;PMS7003;42611;51.132;13.588;2023-02-22T11:30:28;18.2;16.9;
56360;PMS7003;42611;51.132;13.588;2023-02-22T11:36:15;17.5;15.6;
56360;PMS7003;42611;51.132;13.588;2023-02-22T11:40:23;16.9;15.0;
56360;PMS7003;42611;51.132;13.588;2023-02-22T11:45:21;15.6;14.4;
56360;PMS7003;42611;51.132;13.588;2023-02-22T11:50:01;15.3;13.4;
56360;PMS7003;42611;51.132;13.588;2023-02-22T11:55:16;15.0;13.0;
56360;PMS7003;42611;51.132;13.588;2023-02-22T12:00:21;13.4;12.0;
56360;PMS7003;42611;51.132;13.588;2023-02-22T12:05:18;12.9;11.5;
56360;PMS7003;42611;51.132;13.588;2023-02-22T12:10:05;11.6;9.9;
56360;PMS7003;42611;51.132;13.588;2023-02-22T12:15:51;10.7;9.7;
56360;PMS7003;42611;51.132;13.588;2023-02-22T12:20:19;9.4;8.8;
56360;PMS7003;42611;51.132;13.588;2023-02-22T12:30:29;9.0;7.9;
56360;PMS7003;42611;51.132;13.588;2023-02-22T12:35:29;7.9;7.3;
56360;PMS7003;42611;51.132;13.588;2023-02-22T12:40:08;7.3;6.5;
56360;PMS7003;42611;51.132;13.588;2023-02-22T12:45:16;6.8;5.9;
56360;PMS7003;42611;51.132;13.588;2023-02-22T12:50:04;5.9;5.4;
56360;PMS7003;42611;51.132;13.588;2023-02-22T12:55:10;7.4;6.6;
56360;PMS7003;42611;51.132;13.588;2023-02-22T13:00:11;7.6;6.8;
56360;PMS7003;42611;51.132;13.588;2023-02-22T13:05:01;7.5;6.6;
56360;PMS7003;42611;51.132;13.588;2023-02-22T13:10:03;8.3;7.4;
56360;PMS7003;42611;51.132;13.588;2023-02-22T13:15:27;8.4;7.4;
56360;PMS7003;42611;51.132;13.588;2023-02-22T13:25:12;10.0;9.0;
56360;PMS7003;42611;51.132;13.588;2023-02-22T13:30:02;10.7;9.8;
56360;PMS7003;42611;51.132;13.588;2023-02-22T13:50:05;9.3;8.2;
56360;PMS7003;42611;51.132;13.588;2023-02-22T13:55:07;8.9;8.2;
56360;PMS7003;42611;51.132;13.588;2023-02-22T14:00:21;8.8;8.5;
56360;PMS7003;42611;51.132;13.588;2023-02-22T14:05:27;9.2;8.8;
56360;PMS7003;42611;51.132;13.588;2023-02-22T14:10:15;9.0;8.4;
56360;PMS7003;42611;51.132;13.588;2023-02-22T14:15:32;9.3;8.7;
56360;PMS7003;42611;51.132;13.588;2023-02-22T14:20:03;9.0;8.3;
56360;PMS7003;42611;51.132;13.588;2023-02-22T14:25:30;8.8;7.9;
56360;PMS7003;42611;51.132;13.588;2023-02-22T14:30:29;8.8;8.3;
56360;PMS7003;42611;51.132;13.588;2023-02-22T14:35:05;10.0;9.4;
56360;PMS7003;42611;51.132;13.588;2023-02-22T14:40:06;10.5;9.8;
56360;PMS7003;42611;51.132;13.588;2023-02-22T14:45:32;22.4;18.9;
56360;PMS7003;42611;51.132;13.588;2023-02-22T14:50:13;25.8;22.0;
56360;PMS7003;42611;51.132;13.588;2023-02-22T14:55:05;28.7;24.5;
56360;PMS7003;42611;51.132;13.588;2023-02-22T15:00:18;30.7;26.4;
56360;PMS7003;42611;51.132;13.588;2023-02-22T15:05:06;32.0;27.6;
56360;PMS7003;42611;51.132;13.588;2023-02-22T15:10:16;22.2;20.0;
56360;PMS7003;42611;51.132;13.588;2023-02-22T15:15:15;20.6;19.1;
56360;PMS7003;42611;51.132;13.588;2023-02-22T15:20:07;19.4;18.1;
56360;PMS7003;42611;51.132;13.588;2023-02-22T15:30:07;19.6;18.3;
56360;PMS7003;42611;51.132;13.588;2023-02-22T15:35:27;19.3;18.6;
56360;PMS7003;42611;51.132;13.588;2023-02-22T15:40:08;19.7;18.5;
56360;PMS7003;42611;51.132;13.588;2023-02-22T15:45:02;20.3;18.7;
56360;PMS7003;42611;51.132;13.588;2023-02-22T15:50:22;19.2;17.8;
56360;PMS7003;42611;51.132;13.588;2023-02-22T15:55:01;19.7;18.1;
56360;PMS7003;42611;51.132;13.588;2023-02-22T16:00:21;19.8;18.0;
56360;PMS7003;42611;51.132;13.588;2023-02-22T16:05:09;20.0;18.0;
56360;PMS7003;42611;51.132;13.588;2023-02-22T16:10:01;19.5;17.4;
56360;PMS7003;42611;51.132;13.588;2023-02-22T16:15:16;19.2;16.6;
56360;PMS7003;42611;51.132;13.588;2023-02-22T16:20:27;19.1;15.8;
56360;PMS7003;42611;51.132;13.588;2023-02-22T16:25:30;19.7;16.4;
56360;PMS7003;42611;51.132;13.588;2023-02-22T16:30:31;19.0;15.8;
56360;PMS7003;42611;51.132;13.588;2023-02-22T16:35:01;19.2;16.0;
56360;PMS7003;42611;51.132;13.588;2023-02-22T16:40:11;18.4;15.5;
56360;PMS7003;42611;51.132;13.588;2023-02-22T16:45:03;17.3;15.5;
56360;PMS7003;42611;51.132;13.588;2023-02-22T16:55:08;16.9;16.0;
56360;PMS7003;42611;51.132;13.588;2023-02-22T17:00:20;16.0;15.5;
56360;PMS7003;42611;51.132;13.588;2023-02-22T17:05:01;17.4;17.0;
56360;PMS7003;42611;51.132;13.588;2023-02-22T17:10:01;18.5;18.0;
56360;PMS7003;42611;51.132;13.588;2023-02-22T17:15:08;18.4;17.5;
56360;PMS7003;42611;51.132;13.588;2023-02-22T17:20:06;19.2;18.3;
56360;PMS7003;42611;51.132;13.588;2023-02-22T17:25:01;20.0;18.8;
56360;PMS7003;42611;51.132;13.588;2023-02-22T17:30:07;20.4;19.0;
56360;PMS7003;42611;51.132;13.588;2023-02-22T17:35:01;20.2;18.5;
56360;PMS7003;42611;51.132;13.588;2023-02-22T17:40:01;19.1;16.7;
56360;PMS7003;42611;51.132;13.588;2023-02-22T17:45:02;18.6;16.1;
56360;PMS7003;42611;51.132;13.588;2023-02-22T17:50:01;19.0;16.6;
56360;PMS7003;42611;51.132;13.588;2023-02-22T17:55:06;19.4;17.2;
56360;PMS7003;42611;51.132;13.588;2023-02-22T18:00:06;19.0;17.0;
56360;PMS7003;42611;51.132;13.588;2023-02-22T18:05:08;21.2;19.9;
56360;PMS7003;42611;51.132;13.588;2023-02-22T18:10:01;23.0;21.6;
56360;PMS7003;42611;51.132;13.588;2023-02-22T18:15:08;25.2;23.1;
56360;PMS7003;42611;51.132;13.588;2023-02-22T18:20:01;26.9;24.3;
56360;PMS7003;42611;51.132;13.588;2023-02-22T18:25:02;29.0;25.9;
56360;PMS7003;42611;51.132;13.588;2023-02-22T18:30:02;29.4;26.4;
56360;PMS7003;42611;51.132;13.588;2023-02-22T18:35:01;28.7;26.3;
56360;PMS7003;42611;51.132;13.588;2023-02-22T18:40:06;28.6;26.6;
56360;PMS7003;42611;51.132;13.588;2023-02-22T18:45:02;26.3;25.1;
56360;PMS7003;42611;51.132;13.588;2023-02-22T18:50:01;27.9;26.5;
56360;PMS7003;42611;51.132;13.588;2023-02-22T18:55:01;29.3;26.9;
56360;PMS7003;42611;51.132;13.588;2023-02-22T19:00:02;32.4;28.6;
56360;PMS7003;42611;51.132;13.588;2023-02-22T19:05:02;33.4;29.2;
56360;PMS7003;42611;51.132;13.588;2023-02-22T19:10:07;37.0;31.6;
56360;PMS7003;42611;51.132;13.588;2023-02-22T19:15:07;36.7;31.5;
56360;PMS7003;42611;51.132;13.588;2023-02-22T19:20:01;35.6;30.9;
56360;PMS7003;42611;51.132;13.588;2023-02-22T19:25:02;34.0;30.2;
56360;PMS7003;42611;51.132;13.588;2023-02-22T19:30:02;33.6;30.3;
56360;PMS7003;42611;51.132;13.588;2023-02-22T19:35:06;31.9;29.2;
56360;PMS7003;42611;51.132;13.588;2023-02-22T19:40:02;31.1;28.5;
56360;PMS7003;42611;51.132;13.588;2023-02-22T19:45:08;31.6;29.4;
56360;PMS7003;42611;51.132;13.588;2023-02-22T19:50:01;32.5;29.4;
56360;PMS7003;42611;51.132;13.588;2023-02-22T19:55:06;32.8;29.4;
56360;PMS7003;42611;51.132;13.588;2023-02-22T20:00:07;32.8;29.6;
56360;PMS7003;42611;51.132;13.588;2023-02-22T20:05:01;33.9;30.5;
56360;PMS7003;42611;51.132;13.588;2023-02-22T20:10:01;35.3;31.2;
56360;PMS7003;42611;51.132;13.588;2023-02-22T20:15:07;37.9;33.1;
56360;PMS7003;42611;51.132;13.588;2023-02-22T20:20:06;39.8;33.7;
56360;PMS7003;42611;51.132;13.588;2023-02-22T20:25:06;42.3;34.9;
56360;PMS7003;42611;51.132;13.588;2023-02-22T20:30:02;44.0;35.6;
56360;PMS7003;42611;51.132;13.588;2023-02-22T20:35:01;44.6;35.6;
56360;PMS7003;42611;51.132;13.588;2023-02-22T20:40:05;41.8;34.3;
56360;PMS7003;42611;51.132;13.588;2023-02-22T20:45:03;41.9;34.8;
56360;PMS7003;42611;51.132;13.588;2023-02-22T20:50:01;42.2;35.5;
56360;PMS7003;42611;51.132;13.588;2023-02-22T20:55:01;43.8;36.7;
56360;PMS7003;42611;51.132;13.588;2023-02-22T21:00:03;43.7;36.5;
56360;PMS7003;42611;51.132;13.588;2023-02-22T21:05:06;44.4;36.7;
56360;PMS7003;42611;51.132;13.588;2023-02-22T21:10:02;43.5;35.9;
56360;PMS7003;42611;51.132;13.588;2023-02-22T21:15:02;42.8;34.8;
56360;PMS7003;42611;51.132;13.588;2023-02-22T21:20:01;41.3;33.8;
56360;PMS7003;42611;51.132;13.588;2023-02-22T21:25:06;41.2;33.5;
56360;PMS7003;42611;51.132;13.588;2023-02-22T21:30:01;43.1;34.7;
56360;PMS7003;42611;51.132;13.588;2023-02-22T21:35:07;43.9;35.2;
56360;PMS7003;42611;51.132;13.588;2023-02-22T21:40:01;44.0;35.2;
56360;PMS7003;42611;51.132;13.588;2023-02-22T21:45:01;42.4;34.4;
56360;PMS7003;42611;51.132;13.588;2023-02-22T21:55:03;41.9;34.8;
56360;PMS7003;42611;51.132;13.588;2023-02-22T22:00:02;41.1;34.5;
56360;PMS7003;42611;51.132;13.588;2023-02-22T22:05:01;42.1;35.7;
56360;PMS7003;42611;51.132;13.588;2023-02-22T22:10:06;44.5;37.3;
56360;PMS7003;42611;51.132;13.588;2023-02-22T22:15:02;46.2;38.4;
56360;PMS7003;42611;51.132;13.588;2023-02-22T22:20:01;45.0;38.1;
56360;PMS7003;42611;51.132;13.588;2023-02-22T22:25:01;44.8;38.1;
56360;PMS7003;42611;51.132;13.588;2023-02-22T22:30:02;43.0;37.1;
56360;PMS7003;42611;51.132;13.588;2023-02-22T22:35:01;41.5;35.9;
56360;PMS7003;42611;51.132;13.588;2023-02-22T22:40:01;39.2;34.4;
56360;PMS7003;42611;51.132;13.588;2023-02-22T22:45:01;40.5;34.1;
56360;PMS7003;42611;51.132;13.588;2023-02-22T22:50:01;40.2;33.1;
56360;PMS7003;42611;51.132;13.588;2023-02-22T22:55:01;41.0;33.3;
56360;PMS7003;42611;51.132;13.588;2023-02-22T23:00:02;40.6;32.7;
56360;PMS7003;42611;51.132;13.588;2023-02-22T23:05:06;40.8;32.9;
56360;PMS7003;42611;51.132;13.588;2023-02-22T23:10:02;38.7;32.6;
56360;PMS7003;42611;51.132;13.588;2023-02-22T23:15:07;38.2;32.8;
56360;PMS7003;42611;51.132;13.588;2023-02-22T23:20:01;38.4;33.0;
56360;PMS7003;42611;51.132;13.588;2023-02-22T23:25:06;38.5;33.4;
56360;PMS7003;42611;51.132;13.588;2023-02-22T23:30:02;39.0;33.6;
56360;PMS7003;42611;51.132;13.588;2023-02-22T23:35:02;39.2;33.7;
56360;PMS7003;42611;51.132;13.588;2023-02-22T23:40:07;39.0;33.9;
56360;PMS7003;42611;51.132;13.588;2023-02-22T23:45:01;37.7;33.2;
56360;PMS7003;42611;51.132;13.588;2023-02-22T23:50:06;36.6;32.5;
